Graf Ignatievo Air Base


Codes: LBPG/
Name: Graf Ignatievo Air Base
City: Graf Ignatievo
Country: Bulgaria
Elevation: 190 ft.
Wikipedia:

Photos at Graf Ignatievo Air Base


   Photos courtesy of SpottingLog. You can add your own sightings and photos by signing up for a free trial today.



No photos found.

Weather at Graf Ignatievo Air Base


Time (UTC)DescriptionTempratureWindCloud coverageVisibilityPressureHumidity
26-Jun-2024 00:00Broken Clouds24°C4 mph, E81%10000m1016hPa67%
26-Jun-2024 03:00Overcast Clouds21°C2 mph, SE87%10000m1016hPa77%
26-Jun-2024 06:00Broken Clouds23°C7 mph, SE54%10000m1017hPa62%
26-Jun-2024 09:00Clear Sky30°C9 mph, SE0%10000m1016hPa37%
26-Jun-2024 12:00Clear Sky34°C9 mph, E0%10000m1014hPa29%
26-Jun-2024 15:00Clear Sky34°C13 mph, E2%10000m1011hPa26%
26-Jun-2024 18:00Few Clouds27°C4 mph, SE15%10000m1013hPa45%
26-Jun-2024 21:00Overcast Clouds23°C18 mph, E99%10000m1015hPa53%
27-Jun-2024 00:00Overcast Clouds20°C9 mph, E94%10000m1015hPa69%
27-Jun-2024 03:00Few Clouds17°C4 mph, E17%10000m1015hPa86%
27-Jun-2024 06:00Few Clouds23°C7 mph, SE11%10000m1014hPa57%
27-Jun-2024 09:00Clear Sky29°C9 mph, SE0%10000m1012hPa34%
27-Jun-2024 12:00Light Rain33°C7 mph, SE40%10000m1009hPa26%
27-Jun-2024 15:00Light Rain24°C9 mph, NW100%10000m1009hPa65%
27-Jun-2024 18:00Light Rain20°C7 mph, W99%10000m1011hPa84%
27-Jun-2024 21:00Broken Clouds20°C2 mph, E84%10000m1014hPa76%
28-Jun-2024 00:00Overcast Clouds18°C4 mph, E92%10000m1013hPa72%
28-Jun-2024 03:00Scattered Clouds16°C2 mph, N43%10000m1014hPa82%
28-Jun-2024 06:00Broken Clouds22°C2 mph, W70%10000m1015hPa59%
28-Jun-2024 09:00Overcast Clouds29°C2 mph, E100%10000m1014hPa29%
28-Jun-2024 12:00Broken Clouds33°C2 mph, E78%10000m1012hPa17%
28-Jun-2024 15:00Scattered Clouds33°C11 mph, NE27%10000m1011hPa20%
28-Jun-2024 18:00Few Clouds26°C11 mph, N19%10000m1013hPa41%
28-Jun-2024 21:00Few Clouds22°C4 mph, E22%10000m1016hPa53%
29-Jun-2024 00:00Few Clouds19°C2 mph, NE17%10000m1017hPa61%
29-Jun-2024 03:00Clear Sky18°C7 mph, W0%10000m1017hPa68%
29-Jun-2024 06:00Clear Sky26°C7 mph, W0%10000m1017hPa39%
29-Jun-2024 09:00Clear Sky33°C7 mph, NE5%10000m1016hPa23%
29-Jun-2024 12:00Scattered Clouds34°C16 mph, NE34%10000m1015hPa20%
29-Jun-2024 15:00Overcast Clouds33°C16 mph, NE100%10000m1014hPa22%
29-Jun-2024 18:00Overcast Clouds27°C9 mph, N96%10000m1014hPa36%
29-Jun-2024 21:00Clear Sky21°C7 mph, E1%10000m1017hPa49%
30-Jun-2024 00:00Clear Sky19°C2 mph, N1%10000m1017hPa57%
30-Jun-2024 03:00Clear Sky17°C4 mph, W0%10000m1017hPa62%
30-Jun-2024 06:00Clear Sky26°C7 mph, W0%10000m1016hPa36%
30-Jun-2024 09:00Clear Sky32°C7 mph, SE0%10000m1015hPa24%
30-Jun-2024 12:00Clear Sky36°C9 mph, SE0%10000m1012hPa14%
30-Jun-2024 15:00Clear Sky36°C9 mph, SE0%10000m1010hPa13%
30-Jun-2024 18:00Clear Sky28°C9 mph, E0%10000m1011hPa22%
30-Jun-2024 21:00Clear Sky23°C11 mph, E0%10000m1013hPa37%